createdAt,value
2019-04-30T00:00:07.899Z,87.90
2019-04-30T00:01:17.429Z,87.90
2019-04-30T00:02:06.119Z,87.90
2019-04-30T00:03:11.414Z,87.90
2019-04-30T00:04:06.163Z,87.90
2019-04-30T00:05:09.924Z,87.80
2019-04-30T00:06:07.804Z,87.70
2019-04-30T00:07:10.139Z,87.70
2019-04-30T00:08:06.327Z,87.70
2019-04-30T00:09:14.964Z,87.70
2019-04-30T00:10:10.855Z,87.60
2019-04-30T00:11:06.048Z,87.60
2019-04-30T00:12:06.059Z,87.50
2019-04-30T00:13:10.385Z,87.60
2019-04-30T00:14:06.086Z,87.60
2019-04-30T00:15:10.866Z,87.60
2019-04-30T00:16:06.041Z,87.60
2019-04-30T00:17:15.731Z,87.20
2019-04-30T00:18:06.076Z,87.20
2019-04-30T00:19:15.633Z,87.20
2019-04-30T00:20:06.032Z,87.20
2019-04-30T00:21:14.993Z,87.20
2019-04-30T00:22:06.109Z,86.90
2019-04-30T00:23:06.035Z,86.80
2019-04-30T00:24:10.654Z,86.90
2019-04-30T00:25:06.027Z,86.90
2019-04-30T00:26:10.816Z,87.00
2019-04-30T00:27:06.095Z,87.00
2019-04-30T00:28:09.128Z,87.00
2019-04-30T00:29:10.304Z,87.00
2019-04-30T00:30:09.419Z,87.00
2019-04-30T00:31:06.033Z,87.10
2019-04-30T00:32:08.376Z,87.00
2019-04-30T00:33:06.203Z,86.90
2019-04-30T00:34:06.035Z,87.00
2019-04-30T00:35:15.239Z,87.00
2019-04-30T00:36:06.027Z,87.00
2019-04-30T00:37:14.904Z,87.00
2019-04-30T00:38:06.056Z,87.00
2019-04-30T00:39:16.218Z,86.90
2019-04-30T00:40:06.029Z,86.80
2019-04-30T00:41:10.180Z,86.70
2019-04-30T00:42:06.057Z,86.60
2019-04-30T00:43:10.127Z,86.60
2019-04-30T00:44:06.066Z,86.10
2019-04-30T00:45:10.212Z,86.10
2019-04-30T00:46:06.044Z,86.10
2019-04-30T00:47:08.684Z,86.10
2019-04-30T00:48:06.396Z,86.10
2019-04-30T00:49:16.042Z,86.20
2019-04-30T00:50:06.047Z,86.20
2019-04-30T00:51:14.764Z,86.30
2019-04-30T00:52:10.642Z,86.10
2019-04-30T00:53:14.726Z,86.00
2019-04-30T00:54:06.149Z,86.00
2019-04-30T00:55:09.452Z,86.00
2019-04-30T00:56:06.155Z,86.00
2019-04-30T00:57:08.140Z,86.00
2019-04-30T00:58:06.311Z,86.00
2019-04-30T00:59:10.646Z,86.00
2019-04-30T01:00:06.043Z,86.00
2019-04-30T01:01:08.498Z,85.80
2019-04-30T01:02:06.531Z,85.70
2019-04-30T01:03:10.802Z,85.70
2019-04-30T01:04:06.063Z,85.70
2019-04-30T01:05:09.440Z,85.70
2019-04-30T01:06:06.032Z,85.80
2019-04-30T01:07:09.026Z,85.70
2019-04-30T01:08:07.688Z,85.70
2019-04-30T01:09:09.072Z,85.80
2019-04-30T01:10:06.089Z,85.70
2019-04-30T01:11:09.879Z,85.60
2019-04-30T01:12:06.050Z,85.60
2019-04-30T01:13:12.031Z,85.60
2019-04-30T01:14:06.071Z,85.60
2019-04-30T01:15:14.222Z,85.60
2019-04-30T01:16:06.041Z,85.50
2019-04-30T01:17:12.210Z,85.60
2019-04-30T01:18:06.037Z,85.60
2019-04-30T01:19:29.114Z,85.20
2019-04-30T01:20:06.041Z,85.20
2019-04-30T01:21:11.185Z,85.20
2019-04-30T01:22:06.058Z,85.20
2019-04-30T01:23:11.340Z,85.20
2019-04-30T01:24:06.076Z,85.20
2019-04-30T01:25:13.362Z,85.30
2019-04-30T01:26:06.052Z,85.30
2019-04-30T01:27:10.919Z,85.20
2019-04-30T01:28:06.073Z,85.30
2019-04-30T01:29:06.111Z,85.20
2019-04-30T01:30:06.070Z,85.10
2019-04-30T01:31:06.082Z,85.10
2019-04-30T01:32:20.471Z,85.20
2019-04-30T01:33:06.086Z,85.20
2019-04-30T01:34:14.171Z,85.20
2019-04-30T01:35:09.277Z,85.30
2019-04-30T01:36:13.391Z,85.30
2019-04-30T01:37:06.059Z,85.30
2019-04-30T01:38:12.781Z,85.30
2019-04-30T01:39:06.053Z,85.30
2019-04-30T01:40:13.837Z,85.30
2019-04-30T01:41:06.078Z,85.20
2019-04-30T01:42:11.522Z,85.20
2019-04-30T01:43:10.907Z,85.10
2019-04-30T01:44:11.892Z,85.10
2019-04-30T01:45:06.101Z,85.10
2019-04-30T01:46:13.774Z,85.10
2019-04-30T01:47:06.077Z,85.10
2019-04-30T01:48:12.969Z,85.10
2019-04-30T01:49:06.116Z,85.10
2019-04-30T01:50:06.106Z,85.10
2019-04-30T01:51:06.100Z,85.10
2019-04-30T01:52:06.109Z,85.20
2019-04-30T01:53:13.227Z,85.20
2019-04-30T01:54:06.107Z,85.10
2019-04-30T01:55:06.096Z,85.20
2019-04-30T01:56:06.121Z,85.10
2019-04-30T01:57:06.103Z,85.00
2019-04-30T01:58:06.145Z,85.00
2019-04-30T01:59:06.098Z,85.00
2019-04-30T02:00:06.098Z,85.00
2019-04-30T02:01:06.061Z,85.10
2019-04-30T02:02:06.146Z,85.00
2019-04-30T02:03:11.658Z,85.00
2019-04-30T02:04:06.087Z,85.10
2019-04-30T02:05:06.145Z,85.00
2019-04-30T02:06:06.145Z,85.00
2019-04-30T02:07:06.130Z,84.90
2019-04-30T02:08:06.119Z,84.90
2019-04-30T02:09:06.124Z,84.90
2019-04-30T02:10:06.100Z,84.90
2019-04-30T02:11:06.095Z,84.80
2019-04-30T02:12:06.095Z,84.80
2019-04-30T02:13:06.079Z,84.80
2019-04-30T02:14:08.887Z,84.80
2019-04-30T02:15:06.144Z,84.70
2019-04-30T02:16:06.154Z,84.70
2019-04-30T02:17:06.124Z,84.70
2019-04-30T02:18:06.124Z,84.80
2019-04-30T02:19:06.140Z,84.70
2019-04-30T02:20:06.110Z,84.70
2019-04-30T02:21:06.120Z,84.70
2019-04-30T02:22:06.129Z,84.70
2019-04-30T02:23:06.140Z,84.70
2019-04-30T02:24:06.131Z,84.80
2019-04-30T02:25:06.104Z,84.80
2019-04-30T02:26:06.121Z,84.70
2019-04-30T02:27:06.169Z,84.60
2019-04-30T02:28:06.130Z,84.60
2019-04-30T02:29:06.125Z,84.60
2019-04-30T02:30:11.680Z,84.60
2019-04-30T02:31:06.109Z,84.60
2019-04-30T02:32:06.137Z,84.50
2019-04-30T02:33:10.438Z,84.50
2019-04-30T02:34:06.172Z,84.50
2019-04-30T02:35:06.134Z,84.60
2019-04-30T02:36:10.800Z,84.50
2019-04-30T02:37:10.208Z,84.50
2019-04-30T02:38:06.155Z,84.50
2019-04-30T02:39:06.152Z,84.50
2019-04-30T02:40:06.219Z,84.40
2019-04-30T02:41:06.159Z,84.50
2019-04-30T02:42:06.144Z,84.40
2019-04-30T02:43:10.190Z,84.40
2019-04-30T02:44:10.344Z,84.50
2019-04-30T02:45:06.220Z,84.50
2019-04-30T02:46:10.149Z,84.40
2019-04-30T02:47:06.185Z,84.30
2019-04-30T02:48:06.276Z,84.20
2019-04-30T02:49:06.149Z,84.20
2019-04-30T02:50:18.603Z,84.20
2019-04-30T02:51:06.174Z,84.10
2019-04-30T02:52:10.421Z,84.20
2019-04-30T02:53:06.151Z,84.20
2019-04-30T02:54:06.205Z,84.20
2019-04-30T02:55:06.147Z,84.10
2019-04-30T02:56:06.199Z,84.20
2019-04-30T02:57:12.310Z,84.20
2019-04-30T02:58:06.155Z,84.20
2019-04-30T02:59:06.223Z,84.20
2019-04-30T03:00:06.201Z,84.10
2019-04-30T03:01:06.185Z,84.20
2019-04-30T03:02:11.881Z,84.10
2019-04-30T03:03:10.721Z,84.10
2019-04-30T03:04:06.180Z,84.10
2019-04-30T03:05:06.190Z,84.10
2019-04-30T03:06:06.162Z,84.10
2019-04-30T03:07:06.168Z,84.10
2019-04-30T03:08:10.223Z,84.00
2019-04-30T03:09:06.181Z,84.00
2019-04-30T03:10:06.220Z,84.00
2019-04-30T03:11:06.196Z,84.00
2019-04-30T03:12:06.189Z,83.90
2019-04-30T03:13:06.169Z,84.00
2019-04-30T03:14:11.122Z,83.90
2019-04-30T03:15:06.169Z,83.90
2019-04-30T03:16:06.171Z,83.90
2019-04-30T03:17:06.191Z,83.90
2019-04-30T03:18:06.250Z,83.80
2019-04-30T03:19:06.180Z,83.80
2019-04-30T03:20:06.198Z,83.80
2019-04-30T03:21:06.161Z,83.80
2019-04-30T03:22:06.283Z,83.80
2019-04-30T03:23:06.204Z,83.80
2019-04-30T03:24:12.921Z,83.80
2019-04-30T03:25:06.181Z,83.80
2019-04-30T03:26:06.208Z,83.80
2019-04-30T03:27:06.213Z,83.70
2019-04-30T03:28:06.310Z,83.70
2019-04-30T03:29:06.198Z,83.70
2019-04-30T03:30:06.260Z,83.70
2019-04-30T03:31:06.230Z,83.60
2019-04-30T03:32:14.370Z,83.60
2019-04-30T03:33:06.202Z,83.60
2019-04-30T03:34:24.680Z,83.70
2019-04-30T03:35:06.256Z,83.60
2019-04-30T03:36:06.256Z,83.60
2019-04-30T03:37:06.171Z,83.50
2019-04-30T03:38:06.228Z,83.60
2019-04-30T03:39:06.184Z,83.50
2019-04-30T03:40:06.183Z,83.50
2019-04-30T03:41:06.179Z,83.50
2019-04-30T03:42:06.214Z,83.50
2019-04-30T03:43:06.213Z,83.40
2019-04-30T03:44:24.653Z,83.40
2019-04-30T03:45:06.229Z,83.50
2019-04-30T03:46:06.254Z,83.40
2019-04-30T03:47:06.256Z,83.40
2019-04-30T03:48:10.791Z,83.30
2019-04-30T03:49:06.198Z,83.30
2019-04-30T03:50:09.254Z,83.30
2019-04-30T03:51:06.214Z,83.10
2019-04-30T03:52:06.226Z,83.20
2019-04-30T03:53:06.246Z,83.20
2019-04-30T03:54:06.232Z,83.30
2019-04-30T03:55:06.180Z,83.30
2019-04-30T03:56:06.365Z,83.30
2019-04-30T03:57:06.195Z,83.30
2019-04-30T03:58:10.517Z,83.30
2019-04-30T03:59:06.190Z,83.30
2019-04-30T04:00:06.257Z,83.30
2019-04-30T04:01:06.264Z,83.40
2019-04-30T04:02:06.184Z,83.30
2019-04-30T04:03:06.240Z,83.40
2019-04-30T04:04:06.182Z,83.40
2019-04-30T04:05:06.197Z,83.50
2019-04-30T04:06:09.675Z,83.40
2019-04-30T04:07:06.184Z,83.50
2019-04-30T04:08:09.985Z,83.40
2019-04-30T04:09:06.201Z,83.40
2019-04-30T04:10:10.544Z,83.40
2019-04-30T04:11:06.242Z,83.40
2019-04-30T04:12:06.234Z,83.40
2019-04-30T04:13:06.250Z,83.40
2019-04-30T04:14:06.238Z,83.40
2019-04-30T04:15:06.277Z,83.10
2019-04-30T04:16:10.006Z,83.00
2019-04-30T04:17:06.217Z,83.00
2019-04-30T04:18:06.216Z,83.10
2019-04-30T04:19:06.220Z,83.30
2019-04-30T04:20:06.220Z,83.10
2019-04-30T04:21:17.078Z,83.10
2019-04-30T04:22:06.251Z,83.10
2019-04-30T04:23:06.231Z,83.10
2019-04-30T04:24:06.248Z,83.10
2019-04-30T04:25:13.473Z,83.10
2019-04-30T04:26:06.224Z,83.10
2019-04-30T04:27:06.240Z,83.00
2019-04-30T04:28:06.270Z,83.10
2019-04-30T04:29:06.259Z,83.10
2019-04-30T04:30:06.248Z,83.10
2019-04-30T04:31:06.250Z,83.00
2019-04-30T04:32:06.252Z,83.10
2019-04-30T04:33:06.217Z,82.90
2019-04-30T04:34:06.235Z,83.00
2019-04-30T04:35:06.282Z,83.00
2019-04-30T04:36:06.294Z,83.10
2019-04-30T04:37:06.260Z,83.10
2019-04-30T04:38:06.228Z,83.20
2019-04-30T04:39:06.267Z,83.20
2019-04-30T04:40:06.239Z,83.20
2019-04-30T04:41:06.258Z,83.20
2019-04-30T04:42:06.278Z,83.20
2019-04-30T04:43:06.289Z,83.30
2019-04-30T04:44:06.274Z,83.50
2019-04-30T04:45:06.229Z,83.50
2019-04-30T04:46:06.284Z,83.70
2019-04-30T04:47:06.273Z,83.80
2019-04-30T04:48:06.293Z,83.80
2019-04-30T04:49:06.315Z,83.80
2019-04-30T04:50:06.272Z,83.90
2019-04-30T04:51:06.292Z,84.10
2019-04-30T04:52:06.315Z,84.20
2019-04-30T04:53:11.470Z,84.20
2019-04-30T04:54:10.834Z,83.30
2019-04-30T04:55:06.298Z,83.30
2019-04-30T04:56:06.238Z,83.30
2019-04-30T04:57:19.019Z,83.10
2019-04-30T04:58:13.087Z,82.90
2019-04-30T04:59:06.290Z,82.90
2019-04-30T05:00:10.475Z,82.50
2019-04-30T05:01:06.232Z,81.80
2019-04-30T05:02:10.492Z,81.10
2019-04-30T05:03:06.272Z,81.10
2019-04-30T05:04:06.307Z,80.60
2019-04-30T05:05:06.265Z,79.90
2019-04-30T05:06:06.321Z,79.50
2019-04-30T05:07:06.332Z,78.80
2019-04-30T05:08:06.303Z,78.70
2019-04-30T05:09:06.293Z,78.30
2019-04-30T05:10:06.269Z,78.10
2019-04-30T05:11:10.613Z,76.50
2019-04-30T05:12:06.283Z,76.50
2019-04-30T05:13:06.331Z,76.00
2019-04-30T05:14:06.294Z,75.30
2019-04-30T05:15:06.264Z,74.70
2019-04-30T05:16:06.309Z,74.50
2019-04-30T05:17:06.282Z,74.30
2019-04-30T05:18:06.277Z,73.80
2019-04-30T05:19:10.674Z,72.80
2019-04-30T05:20:06.305Z,72.80
2019-04-30T05:21:06.309Z,72.50
2019-04-30T05:22:06.286Z,71.80
2019-04-30T05:23:06.317Z,71.10
2019-04-30T05:24:06.312Z,70.50
2019-04-30T05:25:06.292Z,70.10
2019-04-30T05:26:06.276Z,69.60
2019-04-30T05:27:06.306Z,68.30
2019-04-30T05:28:06.323Z,68.10
2019-04-30T05:29:06.278Z,68.30
2019-04-30T05:30:06.320Z,68.20
2019-04-30T05:31:06.291Z,67.70
2019-04-30T05:32:06.297Z,66.50
2019-04-30T05:33:06.300Z,66.80
2019-04-30T05:34:09.955Z,65.40
2019-04-30T05:35:06.295Z,65.30
2019-04-30T05:36:06.318Z,63.90
2019-04-30T05:37:06.328Z,64.00
2019-04-30T05:38:06.352Z,63.10
2019-04-30T05:39:06.302Z,63.10
2019-04-30T05:40:06.289Z,62.40
2019-04-30T05:41:06.292Z,61.80
2019-04-30T05:42:10.497Z,60.10
2019-04-30T05:43:11.761Z,60.10
2019-04-30T05:44:06.311Z,60.20
2019-04-30T05:45:06.320Z,60.50
2019-04-30T05:46:14.507Z,59.80
2019-04-30T05:47:09.704Z,59.60
2019-04-30T05:48:06.301Z,59.60
2019-04-30T05:49:06.357Z,59.20
2019-04-30T05:50:06.321Z,59.60
2019-04-30T05:51:06.334Z,59.50
2019-04-30T05:52:06.366Z,59.40
2019-04-30T05:53:06.345Z,56.40
2019-04-30T05:54:08.897Z,55.50
2019-04-30T05:55:06.322Z,55.80
2019-04-30T05:56:06.382Z,56.00
2019-04-30T05:57:06.331Z,54.70
2019-04-30T05:58:06.334Z,53.40
2019-04-30T05:59:10.611Z,51.30
2019-04-30T06:00:10.664Z,51.50
2019-04-30T06:01:06.363Z,51.60
2019-04-30T06:02:06.350Z,51.70
2019-04-30T06:03:06.373Z,51.30
2019-04-30T06:04:10.825Z,51.10
2019-04-30T06:05:06.356Z,51.00
2019-04-30T06:06:06.338Z,49.30
2019-04-30T06:07:06.341Z,49.70
2019-04-30T06:08:06.360Z,50.10
2019-04-30T06:09:14.925Z,50.50
2019-04-30T06:10:06.475Z,50.50
2019-04-30T06:11:06.309Z,50.40
2019-04-30T06:12:07.755Z,50.10
2019-04-30T06:13:06.347Z,50.50
2019-04-30T06:14:06.366Z,50.70
2019-04-30T06:15:12.037Z,50.30
2019-04-30T06:16:06.392Z,50.40
2019-04-30T06:17:10.799Z,50.00
2019-04-30T06:18:14.145Z,50.10
2019-04-30T06:19:08.062Z,48.00
2019-04-30T06:20:20.501Z,48.00
2019-04-30T06:21:10.221Z,45.90
2019-04-30T06:22:10.837Z,46.00
2019-04-30T06:23:06.338Z,45.50
2019-04-30T06:24:06.344Z,45.80
2019-04-30T06:25:06.432Z,44.70
2019-04-30T06:26:12.949Z,44.90
2019-04-30T06:27:06.363Z,44.90
2019-04-30T06:28:06.333Z,45.90
2019-04-30T06:29:06.382Z,46.60
2019-04-30T06:30:06.391Z,46.40
2019-04-30T06:31:06.407Z,47.10
2019-04-30T06:32:13.287Z,46.00
2019-04-30T06:33:06.378Z,45.90
2019-04-30T06:34:06.376Z,45.50
2019-04-30T06:35:06.370Z,45.90
2019-04-30T06:36:06.379Z,45.80
2019-04-30T06:37:10.621Z,45.00
2019-04-30T06:38:06.353Z,44.90
2019-04-30T06:39:06.409Z,45.60
2019-04-30T06:40:09.376Z,45.80
2019-04-30T06:41:06.390Z,45.60
2019-04-30T06:42:12.900Z,45.10
2019-04-30T06:43:10.458Z,45.60
2019-04-30T06:44:10.635Z,44.40
2019-04-30T06:45:06.356Z,44.40
2019-04-30T06:46:10.704Z,43.50
2019-04-30T06:47:10.800Z,44.30
2019-04-30T06:48:06.386Z,44.30
2019-04-30T06:49:09.889Z,43.90
2019-04-30T06:50:06.381Z,43.90
2019-04-30T06:51:10.784Z,44.10
2019-04-30T06:52:22.835Z,44.10
2019-04-30T06:53:06.373Z,44.10
2019-04-30T06:54:11.407Z,43.60
2019-04-30T06:55:06.394Z,43.70
2019-04-30T06:56:06.407Z,43.40
2019-04-30T06:57:06.373Z,43.70
2019-04-30T06:58:15.399Z,43.60
2019-04-30T06:59:10.873Z,44.90
2019-04-30T07:00:06.378Z,44.80
2019-04-30T07:01:06.374Z,43.80
2019-04-30T07:02:06.404Z,43.60
2019-04-30T07:03:06.370Z,44.20
2019-04-30T07:04:06.409Z,44.60
2019-04-30T07:05:06.345Z,44.40
2019-04-30T07:06:08.289Z,45.20
2019-04-30T07:07:19.155Z,45.30
2019-04-30T07:08:12.167Z,44.70
2019-04-30T07:09:06.415Z,44.40
2019-04-30T07:10:17.036Z,45.10
2019-04-30T07:11:11.658Z,43.30
2019-04-30T07:12:06.602Z,43.30
2019-04-30T07:13:06.398Z,43.40
2019-04-30T07:14:06.478Z,42.50
2019-04-30T07:15:06.383Z,43.20
2019-04-30T07:16:08.297Z,43.60
2019-04-30T07:17:06.358Z,45.00
2019-04-30T07:18:06.392Z,46.00
2019-04-30T07:19:09.607Z,46.20
2019-04-30T07:20:06.356Z,46.20
2019-04-30T07:21:08.270Z,46.40
2019-04-30T07:22:06.393Z,45.80
2019-04-30T07:23:06.420Z,45.70
2019-04-30T07:24:06.399Z,45.60
2019-04-30T07:25:06.443Z,45.30
2019-04-30T07:26:19.582Z,46.60
2019-04-30T07:27:06.409Z,46.70
2019-04-30T07:28:09.495Z,46.00
2019-04-30T07:29:06.438Z,45.90
2019-04-30T07:30:06.395Z,45.00
2019-04-30T07:31:14.555Z,45.30
2019-04-30T07:32:06.406Z,45.20
2019-04-30T07:33:06.394Z,45.20
2019-04-30T07:34:06.497Z,45.20
2019-04-30T07:35:06.415Z,45.20
2019-04-30T07:36:06.430Z,45.20
2019-04-30T07:37:24.496Z,44.90
2019-04-30T07:38:10.940Z,44.70
2019-04-30T07:39:06.403Z,44.70
2019-04-30T07:40:06.441Z,44.90
2019-04-30T07:41:10.634Z,45.50
2019-04-30T07:42:06.492Z,45.50
2019-04-30T07:43:10.763Z,44.80
2019-04-30T07:44:06.448Z,44.50
2019-04-30T07:45:06.453Z,44.00
2019-04-30T07:46:06.425Z,44.30
2019-04-30T07:47:06.386Z,44.30
2019-04-30T07:48:06.442Z,44.60
2019-04-30T07:49:10.642Z,44.80
2019-04-30T07:50:07.005Z,44.80
2019-04-30T07:51:11.899Z,45.20
2019-04-30T07:52:08.855Z,45.20
2019-04-30T07:53:10.313Z,45.50
2019-04-30T07:54:06.541Z,45.20
2019-04-30T07:55:06.486Z,45.50
2019-04-30T07:56:28.141Z,45.30
2019-04-30T07:57:06.423Z,44.80
2019-04-30T07:58:06.444Z,45.20
2019-04-30T07:59:11.424Z,43.90
2019-04-30T08:00:06.465Z,43.90
2019-04-30T08:01:06.397Z,43.80
2019-04-30T08:02:14.925Z,42.80
2019-04-30T08:03:07.173Z,43.10
2019-04-30T08:04:08.319Z,42.90
2019-04-30T08:05:06.438Z,43.00
2019-04-30T08:06:09.399Z,43.70
2019-04-30T08:07:10.391Z,45.10
2019-04-30T08:08:24.482Z,45.00
2019-04-30T08:09:06.618Z,44.90
2019-04-30T08:10:08.243Z,44.40
2019-04-30T08:11:06.467Z,45.50
2019-04-30T08:12:11.094Z,45.40
2019-04-30T08:13:14.645Z,45.40
2019-04-30T08:14:07.153Z,45.70
2019-04-30T08:15:10.348Z,46.00
2019-04-30T08:16:06.433Z,45.30
2019-04-30T08:17:06.463Z,44.70
2019-04-30T08:18:06.476Z,44.90
2019-04-30T08:19:10.932Z,43.40
2019-04-30T08:20:08.204Z,43.20
2019-04-30T08:21:09.879Z,43.70
2019-04-30T08:22:06.431Z,43.60
2019-04-30T08:23:34.530Z,43.40
2019-04-30T08:24:13.692Z,43.30
2019-04-30T08:25:06.439Z,43.30
2019-04-30T08:26:06.438Z,43.30
2019-04-30T08:27:06.531Z,43.30
2019-04-30T08:28:06.484Z,43.20
2019-04-30T08:29:06.473Z,42.90
2019-04-30T08:30:25.724Z,43.40
2019-04-30T08:31:06.471Z,44.90
2019-04-30T08:32:08.539Z,45.30
2019-04-30T08:33:06.476Z,44.10
2019-04-30T08:34:06.433Z,44.10
2019-04-30T08:35:06.406Z,44.20
2019-04-30T08:36:09.766Z,44.40
2019-04-30T08:37:20.183Z,44.40
2019-04-30T08:38:06.480Z,44.60
2019-04-30T08:39:06.484Z,44.70
2019-04-30T08:40:08.512Z,44.50
2019-04-30T08:41:09.723Z,45.10
2019-04-30T08:42:06.487Z,45.10
2019-04-30T08:43:10.757Z,45.50
2019-04-30T08:44:06.536Z,46.00
2019-04-30T08:45:06.455Z,45.90
2019-04-30T08:46:06.453Z,46.00
2019-04-30T08:47:08.998Z,43.70
2019-04-30T08:48:10.363Z,43.60
2019-04-30T08:49:08.815Z,43.70
2019-04-30T08:50:06.655Z,42.70
2019-04-30T08:51:06.515Z,42.30
2019-04-30T08:52:06.513Z,43.80
2019-04-30T08:53:06.514Z,44.50
2019-04-30T08:54:06.548Z,44.90
2019-04-30T08:55:17.191Z,44.40
2019-04-30T08:56:06.571Z,43.70
2019-04-30T08:57:08.488Z,43.90
2019-04-30T08:58:15.159Z,43.60
2019-04-30T08:59:08.716Z,43.50
2019-04-30T09:00:06.509Z,44.20
2019-04-30T09:01:08.256Z,43.00
2019-04-30T09:02:16.562Z,43.40
2019-04-30T09:03:09.734Z,43.20
2019-04-30T09:04:10.350Z,43.50
2019-04-30T09:05:06.496Z,43.50
2019-04-30T09:06:09.796Z,43.40
2019-04-30T09:07:08.392Z,43.40
2019-04-30T09:08:09.807Z,43.30
2019-04-30T09:09:06.478Z,43.20
2019-04-30T09:10:06.460Z,41.50
2019-04-30T09:11:06.506Z,41.70
2019-04-30T09:12:06.498Z,42.50
2019-04-30T09:13:06.526Z,42.70
2019-04-30T09:14:08.421Z,43.20
2019-04-30T09:15:06.493Z,43.20
2019-04-30T09:16:06.509Z,42.60
2019-04-30T09:17:06.504Z,43.10
2019-04-30T09:18:12.744Z,43.70
2019-04-30T09:19:06.479Z,43.30
2019-04-30T09:20:06.542Z,43.30
2019-04-30T09:21:08.783Z,41.60
2019-04-30T09:22:15.364Z,41.10
2019-04-30T09:23:11.673Z,41.80
2019-04-30T09:24:10.672Z,41.80
2019-04-30T09:25:06.520Z,41.90
2019-04-30T09:26:08.446Z,42.20
2019-04-30T09:27:06.485Z,41.60
2019-04-30T09:28:08.544Z,41.70
2019-04-30T09:29:09.270Z,41.40
2019-04-30T09:30:10.832Z,42.20
2019-04-30T09:31:08.256Z,42.20
2019-04-30T09:32:06.522Z,40.60
2019-04-30T09:33:06.757Z,40.90
2019-04-30T09:34:18.446Z,41.80
2019-04-30T09:35:06.527Z,41.80
2019-04-30T09:36:06.520Z,40.80
2019-04-30T09:37:08.539Z,40.90
2019-04-30T09:38:09.581Z,41.10
2019-04-30T09:39:08.764Z,41.10
2019-04-30T09:40:18.960Z,41.00
2019-04-30T09:41:06.532Z,40.40
2019-04-30T09:42:06.540Z,39.70
2019-04-30T09:43:10.952Z,41.40
2019-04-30T09:44:06.523Z,41.00
2019-04-30T09:45:09.268Z,40.50
2019-04-30T09:46:26.113Z,40.80
2019-04-30T09:47:09.293Z,41.60
2019-04-30T09:48:06.539Z,41.50
2019-04-30T09:49:06.512Z,41.40
2019-04-30T09:50:06.528Z,41.10
2019-04-30T09:51:07.395Z,41.10
2019-04-30T09:52:06.632Z,40.90
2019-04-30T09:53:06.585Z,40.80
2019-04-30T09:54:11.464Z,41.30
2019-04-30T09:55:06.718Z,40.80
2019-04-30T09:56:06.550Z,41.40
2019-04-30T09:57:06.555Z,41.20
2019-04-30T09:58:18.024Z,41.30
2019-04-30T09:59:06.547Z,41.90
2019-04-30T10:00:06.552Z,41.70
2019-04-30T10:01:09.838Z,41.80
2019-04-30T10:02:09.425Z,41.40
2019-04-30T10:03:09.642Z,41.00
2019-04-30T10:04:07.893Z,41.20
2019-04-30T10:05:07.454Z,40.00
2019-04-30T10:06:06.568Z,40.50
2019-04-30T10:07:10.749Z,39.60
2019-04-30T10:08:06.571Z,39.60
2019-04-30T10:09:10.759Z,39.50
2019-04-30T10:10:11.376Z,39.50
2019-04-30T10:11:06.573Z,40.10
2019-04-30T10:12:06.658Z,40.50
2019-04-30T10:13:06.596Z,40.10
2019-04-30T10:14:06.594Z,39.70
2019-04-30T10:15:06.567Z,39.80
2019-04-30T10:16:06.585Z,39.20
2019-04-30T10:17:09.352Z,38.50
2019-04-30T10:18:06.577Z,38.00
2019-04-30T10:19:10.489Z,37.10
2019-04-30T10:20:06.565Z,37.20
2019-04-30T10:21:06.590Z,38.80
2019-04-30T10:22:13.293Z,39.50
2019-04-30T10:23:10.342Z,39.20
2019-04-30T10:24:15.824Z,39.20
2019-04-30T10:25:06.576Z,39.20
2019-04-30T10:26:06.574Z,39.20
2019-04-30T10:27:13.353Z,39.00
2019-04-30T10:28:06.650Z,38.20
2019-04-30T10:29:10.888Z,38.70
2019-04-30T10:30:06.611Z,38.70
2019-04-30T10:31:08.516Z,37.90
2019-04-30T10:32:08.606Z,37.80
2019-04-30T10:33:10.299Z,37.30
2019-04-30T10:34:06.583Z,36.70
2019-04-30T10:35:08.364Z,37.20
2019-04-30T10:36:06.692Z,37.20
2019-04-30T10:37:08.723Z,36.00
2019-04-30T10:38:09.668Z,35.90
2019-04-30T10:39:06.617Z,36.00
2019-04-30T10:40:06.645Z,36.00
2019-04-30T10:41:09.217Z,34.70
2019-04-30T10:42:06.732Z,34.70
2019-04-30T10:43:10.685Z,33.70
2019-04-30T10:44:09.263Z,33.20
2019-04-30T10:45:06.585Z,32.90
2019-04-30T10:46:06.613Z,32.20
2019-04-30T10:47:06.593Z,32.30
2019-04-30T10:48:06.593Z,32.40
2019-04-30T10:49:11.588Z,32.20
2019-04-30T10:50:06.893Z,31.00
2019-04-30T10:51:08.829Z,32.70
2019-04-30T10:52:07.049Z,33.90
2019-04-30T10:53:06.907Z,34.40
2019-04-30T10:54:09.149Z,34.90
2019-04-30T10:55:06.974Z,33.30
2019-04-30T10:56:09.138Z,33.00
2019-04-30T10:57:08.555Z,32.00
2019-04-30T10:58:07.091Z,32.20
2019-04-30T10:59:06.950Z,30.50
2019-04-30T11:00:10.102Z,30.60
2019-04-30T11:01:10.691Z,30.00
2019-04-30T11:02:08.599Z,29.90
2019-04-30T11:03:22.765Z,30.90
2019-04-30T11:04:06.965Z,29.40
2019-04-30T11:05:07.833Z,29.00
2019-04-30T11:06:09.230Z,28.30
2019-04-30T11:07:08.980Z,29.50
2019-04-30T11:08:06.894Z,30.10
2019-04-30T11:09:07.164Z,29.20
2019-04-30T11:10:09.246Z,28.40
2019-04-30T11:11:06.905Z,28.60
2019-04-30T11:12:06.741Z,26.80
2019-04-30T11:13:06.874Z,26.70
2019-04-30T11:14:07.653Z,26.30
2019-04-30T11:15:07.106Z,26.60
2019-04-30T11:16:15.606Z,26.80
2019-04-30T11:17:09.566Z,26.50
2019-04-30T11:18:07.416Z,26.70
2019-04-30T11:19:09.234Z,27.80
2019-04-30T11:20:07.422Z,27.70
2019-04-30T11:21:10.485Z,27.60
2019-04-30T11:22:08.025Z,27.50
2019-04-30T11:23:15.396Z,27.80
2019-04-30T11:24:09.112Z,27.80
2019-04-30T11:25:09.692Z,27.00
2019-04-30T11:26:07.754Z,25.80
2019-04-30T11:27:10.006Z,25.40
2019-04-30T11:28:15.547Z,25.50
2019-04-30T11:29:09.123Z,26.10
2019-04-30T11:30:23.725Z,26.10
2019-04-30T11:31:08.123Z,27.20
2019-04-30T11:32:11.008Z,26.80
2019-04-30T11:33:10.964Z,26.80
2019-04-30T11:34:06.939Z,27.40
2019-04-30T11:35:10.361Z,27.10
2019-04-30T11:36:06.874Z,27.10
2019-04-30T11:37:06.812Z,26.40
2019-04-30T11:38:06.760Z,25.90
2019-04-30T11:39:08.474Z,26.20
2019-04-30T11:40:06.994Z,24.80
2019-04-30T11:41:09.292Z,25.20
2019-04-30T11:42:07.992Z,24.90
2019-04-30T11:43:06.971Z,25.10
2019-04-30T11:44:06.757Z,25.00
2019-04-30T11:45:09.331Z,24.30
2019-04-30T11:46:09.224Z,24.80
2019-04-30T11:47:06.978Z,25.80
2019-04-30T11:48:08.976Z,23.60
2019-04-30T11:49:06.659Z,24.00
2019-04-30T11:50:08.781Z,23.90
2019-04-30T11:51:07.072Z,22.70
2019-04-30T11:52:07.887Z,21.90
2019-04-30T11:53:27.740Z,22.50
2019-04-30T11:54:09.575Z,22.30
2019-04-30T11:55:10.235Z,23.10
2019-04-30T11:56:07.015Z,23.00
2019-04-30T11:57:09.312Z,23.70
2019-04-30T11:58:06.837Z,22.90
2019-04-30T11:59:08.518Z,23.60
2019-04-30T12:00:11.305Z,24.00
2019-04-30T12:01:06.861Z,24.60
2019-04-30T12:02:09.306Z,24.60
2019-04-30T12:03:08.990Z,25.70
2019-04-30T12:04:09.312Z,25.90
2019-04-30T12:05:07.641Z,23.10
2019-04-30T12:06:08.576Z,22.60
2019-04-30T12:07:11.196Z,21.50
2019-04-30T12:08:06.772Z,21.50
2019-04-30T12:09:11.218Z,20.90
2019-04-30T12:10:10.124Z,20.90
2019-04-30T12:11:07.283Z,20.80
2019-04-30T12:12:09.944Z,21.10
2019-04-30T12:13:10.855Z,20.90
2019-04-30T12:14:07.252Z,20.90
2019-04-30T12:15:09.188Z,21.80
2019-04-30T12:16:09.429Z,21.60
2019-04-30T12:17:07.509Z,21.70
2019-04-30T12:18:08.430Z,22.50
2019-04-30T12:19:10.272Z,21.80
2019-04-30T12:20:10.024Z,21.50
2019-04-30T12:21:09.190Z,21.90
2019-04-30T12:22:07.671Z,21.90
2019-04-30T12:23:12.428Z,22.90
2019-04-30T12:24:07.133Z,22.80
2019-04-30T12:25:10.426Z,23.50
2019-04-30T12:26:08.635Z,23.60
2019-04-30T12:27:06.514Z,23.50
2019-04-30T12:28:06.653Z,24.20
2019-04-30T12:29:06.627Z,25.40
2019-04-30T12:30:07.544Z,26.30
2019-04-30T12:31:06.608Z,26.30
2019-04-30T12:32:06.633Z,25.30
2019-04-30T12:33:06.646Z,25.10
2019-04-30T12:34:06.611Z,24.50
2019-04-30T12:35:06.668Z,25.50
2019-04-30T12:36:08.860Z,25.70
2019-04-30T12:37:11.102Z,26.50
2019-04-30T12:38:10.746Z,25.90
2019-04-30T12:39:06.619Z,26.00
2019-04-30T12:40:06.689Z,26.00
2019-04-30T12:41:06.673Z,25.60
2019-04-30T12:42:08.347Z,25.30
2019-04-30T12:43:09.665Z,26.20
2019-04-30T12:44:06.667Z,26.20
2019-04-30T12:45:06.658Z,26.20
2019-04-30T12:46:06.660Z,25.60
2019-04-30T12:47:06.723Z,25.50
2019-04-30T12:48:06.685Z,25.70
2019-04-30T12:49:10.685Z,25.30
2019-04-30T12:50:06.665Z,25.30
2019-04-30T12:51:06.684Z,25.60
2019-04-30T12:52:08.857Z,25.60